createdAt,value
2023-05-10T00:02:03.994Z,26.46
2023-05-10T00:04:53.340Z,26.48
2023-05-10T00:07:41.979Z,26.42
2023-05-10T00:10:30.627Z,26.43
2023-05-10T00:13:21.806Z,26.40
2023-05-10T00:16:10.539Z,26.46
2023-05-10T00:19:01.372Z,26.47
2023-05-10T00:21:50.316Z,26.47
2023-05-10T00:24:40.856Z,26.46
2023-05-10T00:27:29.547Z,26.41
2023-05-10T00:30:19.876Z,26.34
2023-05-10T00:33:08.808Z,26.35
2023-05-10T00:35:57.414Z,26.38
2023-05-10T00:38:46.763Z,26.36
2023-05-10T00:41:35.859Z,26.35
2023-05-10T00:44:24.523Z,26.42
2023-05-10T00:47:16.222Z,26.42
2023-05-10T00:50:05.698Z,26.41
2023-05-10T00:52:55.043Z,26.42
2023-05-10T00:55:44.358Z,26.42
2023-05-10T00:58:32.934Z,26.41
2023-05-10T01:01:22.240Z,26.42
2023-05-10T01:04:13.758Z,26.43
2023-05-10T01:07:02.495Z,26.37
2023-05-10T01:09:51.779Z,26.39
2023-05-10T01:12:44.827Z,26.40
2023-05-10T01:15:34.125Z,26.44
2023-05-10T01:18:23.771Z,26.43
2023-05-10T01:21:25.974Z,26.45
2023-05-10T01:24:36.899Z,26.38
2023-05-10T01:27:53.944Z,26.34
2023-05-10T01:31:21.197Z,26.37
2023-05-10T01:34:15.305Z,26.39
2023-05-10T01:37:08.588Z,26.35
2023-05-10T01:40:05.834Z,26.36
2023-05-10T01:43:02.635Z,26.38
2023-05-10T01:46:05.530Z,26.37
2023-05-10T01:48:58.308Z,26.37
2023-05-10T01:51:54.666Z,26.31
2023-05-10T01:54:47.949Z,26.33
2023-05-10T01:57:40.296Z,26.32
2023-05-10T02:00:31.288Z,26.29
2023-05-10T02:03:23.461Z,26.31
2023-05-10T02:06:15.559Z,26.28
2023-05-10T02:09:06.516Z,26.31
2023-05-10T02:11:56.466Z,26.29
2023-05-10T02:14:45.801Z,26.23
2023-05-10T02:17:35.722Z,26.26
2023-05-10T02:20:26.228Z,26.24
2023-05-10T02:23:16.125Z,26.25
2023-05-10T02:26:08.744Z,26.29
2023-05-10T02:28:59.489Z,26.28
2023-05-10T02:31:49.051Z,26.25
2023-05-10T02:34:38.617Z,26.31
2023-05-10T02:37:28.608Z,26.27
2023-05-10T02:40:19.670Z,26.31
2023-05-10T02:43:14.556Z,26.39
2023-05-10T02:46:04.020Z,26.36
2023-05-10T02:48:52.674Z,26.36
2023-05-10T02:52:01.067Z,26.36
2023-05-10T02:54:54.788Z,26.30
2023-05-10T02:57:49.188Z,26.29
2023-05-10T03:00:39.330Z,26.37
2023-05-10T03:03:27.938Z,26.37
2023-05-10T03:06:17.219Z,26.37
2023-05-10T03:09:06.307Z,26.33
2023-05-10T03:12:03.792Z,26.29
2023-05-10T03:15:06.176Z,26.28
2023-05-10T03:17:59.994Z,26.24
2023-05-10T03:20:51.361Z,26.27
2023-05-10T03:23:44.740Z,26.28
2023-05-10T03:26:34.595Z,26.23
2023-05-10T03:29:24.392Z,26.24
2023-05-10T03:32:14.115Z,26.21
2023-05-10T03:35:08.849Z,26.23
2023-05-10T03:37:57.396Z,26.25
2023-05-10T03:40:46.115Z,26.27
2023-05-10T03:43:34.753Z,26.27
2023-05-10T03:46:23.395Z,26.25
2023-05-10T03:49:12.014Z,26.28
2023-05-10T03:52:02.448Z,26.17
2023-05-10T03:54:51.024Z,26.21
2023-05-10T03:57:39.606Z,26.15
2023-05-10T04:00:28.187Z,26.23
2023-05-10T04:03:19.513Z,26.28
2023-05-10T04:06:10.126Z,26.27
2023-05-10T04:09:04.891Z,26.19
2023-05-10T04:11:53.482Z,26.26
2023-05-10T04:14:42.136Z,26.22
2023-05-10T04:17:30.838Z,26.23
2023-05-10T04:20:19.773Z,26.22
2023-05-10T04:23:08.611Z,26.21
2023-05-10T04:26:03.327Z,26.21
2023-05-10T04:28:52.192Z,26.25
2023-05-10T04:31:41.858Z,26.22
2023-05-10T04:34:30.563Z,26.10
2023-05-10T04:37:19.300Z,26.10
2023-05-10T04:40:09.217Z,25.99
2023-05-10T04:42:59.320Z,25.96
2023-05-10T04:45:47.971Z,25.95
2023-05-10T04:48:36.582Z,25.92
2023-05-10T04:51:25.173Z,25.89
2023-05-10T04:54:13.775Z,25.86
2023-05-10T04:57:02.664Z,25.81
2023-05-10T04:59:53.783Z,25.74
2023-05-10T05:02:46.261Z,25.65
2023-05-10T05:05:36.007Z,25.70
2023-05-10T05:08:24.957Z,25.75
2023-05-10T05:11:13.591Z,25.63
2023-05-10T05:14:02.230Z,25.59
2023-05-10T05:16:52.241Z,25.52
2023-05-10T05:19:40.833Z,25.54
2023-05-10T05:22:29.489Z,25.59
2023-05-10T05:25:18.463Z,25.50
2023-05-10T05:28:07.104Z,25.49
2023-05-10T05:30:55.842Z,25.45
2023-05-10T05:33:45.961Z,25.44
2023-05-10T05:36:37.071Z,25.46
2023-05-10T05:39:26.284Z,25.43
2023-05-10T05:42:17.436Z,25.39
2023-05-10T05:45:06.594Z,25.47
2023-05-10T05:47:55.359Z,25.49
2023-05-10T05:50:46.672Z,25.51
2023-05-10T05:53:35.406Z,25.47
2023-05-10T05:56:25.426Z,25.53
2023-05-10T05:59:14.249Z,25.70
2023-05-10T06:02:03.015Z,25.67
2023-05-10T06:04:51.624Z,25.62
2023-05-10T06:07:43.118Z,25.61
2023-05-10T06:10:32.823Z,25.57
2023-05-10T06:13:22.277Z,25.53
2023-05-10T06:16:10.929Z,25.49
2023-05-10T06:18:59.961Z,25.51
2023-05-10T06:21:48.560Z,25.41
2023-05-10T06:24:40.739Z,25.43
2023-05-10T06:27:29.590Z,25.49
2023-05-10T06:30:18.395Z,25.44
2023-05-10T06:33:07.273Z,25.44
2023-05-10T06:35:56.217Z,25.39
2023-05-10T06:38:45.089Z,25.37
2023-05-10T06:41:35.240Z,25.33
2023-05-10T06:44:23.955Z,25.41
2023-05-10T06:47:12.723Z,25.43
2023-05-10T06:50:02.223Z,25.42
2023-05-10T06:52:53.386Z,25.41
2023-05-10T06:55:42.465Z,25.43
2023-05-10T06:58:33.727Z,25.38
2023-05-10T07:01:22.439Z,25.37
2023-05-10T07:04:11.220Z,25.42
2023-05-10T07:07:00.093Z,25.44
2023-05-10T07:09:48.962Z,25.46
2023-05-10T07:12:37.713Z,25.41
2023-05-10T07:15:27.737Z,25.42
2023-05-10T07:18:16.385Z,25.39
2023-05-10T07:21:05.258Z,25.41
2023-05-10T07:23:53.899Z,25.38
2023-05-10T07:26:42.736Z,25.43
2023-05-10T07:29:31.401Z,25.45
2023-05-10T07:32:21.545Z,25.39
2023-05-10T07:35:11.113Z,25.39
2023-05-10T07:38:00.123Z,25.39
2023-05-10T07:40:48.790Z,25.39
2023-05-10T07:43:37.946Z,25.37
2023-05-10T07:46:26.675Z,25.39
2023-05-10T07:49:16.615Z,25.38
2023-05-10T07:52:06.335Z,25.43
2023-05-10T07:54:55.717Z,25.43
2023-05-10T07:57:44.834Z,25.47
2023-05-10T08:00:33.822Z,25.39
2023-05-10T08:03:23.564Z,25.40
2023-05-10T08:06:13.907Z,25.57
2023-05-10T08:09:02.634Z,25.58
2023-05-10T08:11:51.690Z,25.53
2023-05-10T08:14:40.403Z,25.54
2023-05-10T08:17:29.012Z,25.58
2023-05-10T08:20:19.975Z,25.58
2023-05-10T08:23:10.014Z,25.50
2023-05-10T08:25:59.069Z,25.48
2023-05-10T08:28:47.643Z,25.53
2023-05-10T08:31:36.269Z,25.55
2023-05-10T08:34:25.235Z,25.52
2023-05-10T08:37:14.482Z,25.52
2023-05-10T08:40:05.153Z,25.55
2023-05-10T08:42:58.059Z,25.60
2023-05-10T08:45:48.012Z,25.60
2023-05-10T08:48:37.566Z,25.57
2023-05-10T08:51:29.371Z,25.61
2023-05-10T08:54:18.533Z,25.64
2023-05-10T08:57:10.577Z,25.58
2023-05-10T08:59:59.325Z,25.61
2023-05-10T09:02:50.259Z,25.58
2023-05-10T09:05:39.282Z,25.58
2023-05-10T09:08:28.659Z,25.55
2023-05-10T09:11:17.686Z,25.58
2023-05-10T09:14:07.801Z,25.66
2023-05-10T09:16:57.085Z,25.68
2023-05-10T09:19:47.157Z,25.71
2023-05-10T09:22:36.252Z,25.71
2023-05-10T09:25:24.802Z,25.74
2023-05-10T09:28:14.175Z,25.74
2023-05-10T09:31:04.197Z,25.71
2023-05-10T09:33:53.428Z,25.69
2023-05-10T09:36:53.509Z,25.73
2023-05-10T09:39:42.379Z,25.77
2023-05-10T09:42:30.982Z,25.77
2023-05-10T09:45:19.665Z,25.80
2023-05-10T09:48:09.806Z,25.82
2023-05-10T09:51:02.105Z,25.83
2023-05-10T09:53:52.102Z,25.84
2023-05-10T09:56:41.762Z,25.86
2023-05-10T09:59:32.849Z,25.88
2023-05-10T10:02:22.008Z,25.93
2023-05-10T10:05:14.169Z,25.93
2023-05-10T10:08:05.294Z,25.91
2023-05-10T10:10:54.260Z,25.89
2023-05-10T10:13:43.176Z,25.94
2023-05-10T10:16:32.753Z,25.92
2023-05-10T10:19:24.247Z,25.99
2023-05-10T10:22:14.378Z,25.93
2023-05-10T10:25:03.063Z,25.89
2023-05-10T10:28:08.125Z,25.92
2023-05-10T10:30:58.570Z,25.94
2023-05-10T10:34:01.775Z,25.98
2023-05-10T10:36:50.899Z,25.94
2023-05-10T10:39:40.973Z,26.03
2023-05-10T10:42:48.012Z,26.01
2023-05-10T10:45:36.910Z,26.00
2023-05-10T10:48:26.285Z,26.05
2023-05-10T10:51:16.126Z,26.03
2023-05-10T10:54:12.091Z,26.08
2023-05-10T10:57:17.807Z,26.07
2023-05-10T11:00:24.083Z,26.02
2023-05-10T11:03:18.520Z,26.03
2023-05-10T11:06:08.888Z,26.07
2023-05-10T11:08:57.515Z,26.10
2023-05-10T11:11:56.213Z,26.12
2023-05-10T11:14:52.752Z,26.08
2023-05-10T11:17:41.498Z,26.06
2023-05-10T11:20:34.348Z,26.11
2023-05-10T11:23:22.946Z,26.14
2023-05-10T11:26:12.024Z,26.13
2023-05-10T11:29:01.791Z,26.08
2023-05-10T11:31:52.377Z,26.12
2023-05-10T11:34:43.684Z,26.15
2023-05-10T11:37:35.168Z,26.11
2023-05-10T11:40:25.792Z,26.16
2023-05-10T11:43:14.558Z,26.19
2023-05-10T11:46:03.795Z,26.24
2023-05-10T11:48:56.719Z,26.14
2023-05-10T11:51:45.936Z,26.17
2023-05-10T11:54:35.772Z,26.24
2023-05-10T11:57:29.709Z,26.20
2023-05-10T12:00:18.948Z,26.21
2023-05-10T12:03:08.446Z,26.19
2023-05-10T12:06:01.639Z,26.21
2023-05-10T12:08:53.462Z,26.25
2023-05-10T12:11:44.542Z,26.23
2023-05-10T12:14:40.079Z,26.20
2023-05-10T12:17:30.789Z,26.23
2023-05-10T12:20:21.505Z,26.22
2023-05-10T12:23:14.550Z,26.24
2023-05-10T12:26:06.774Z,26.28
2023-05-10T12:28:55.883Z,26.29
2023-05-10T12:31:55.486Z,26.28
2023-05-10T12:34:44.748Z,26.29
2023-05-10T12:37:37.073Z,26.25
2023-05-10T12:40:28.560Z,26.24
2023-05-10T12:43:20.404Z,26.29
2023-05-10T12:46:11.581Z,26.25
2023-05-10T12:49:09.189Z,26.34
2023-05-10T12:51:58.892Z,26.32
2023-05-10T12:54:50.222Z,26.29
2023-05-10T12:57:40.198Z,26.35
2023-05-10T13:00:28.947Z,26.34
2023-05-10T13:03:17.755Z,26.36
2023-05-10T13:06:07.486Z,26.33
2023-05-10T13:08:58.575Z,26.37
2023-05-10T13:11:48.968Z,26.38
2023-05-10T13:14:39.078Z,26.35
2023-05-10T13:17:28.725Z,26.35
2023-05-10T13:20:18.234Z,26.43
2023-05-10T13:23:07.070Z,26.43
2023-05-10T13:25:55.692Z,26.40
2023-05-10T13:28:44.296Z,26.38
2023-05-10T13:31:34.626Z,26.49
2023-05-10T13:34:23.854Z,26.46
2023-05-10T13:37:13.743Z,26.44
2023-05-10T13:40:02.672Z,26.34
2023-05-10T13:42:51.979Z,26.35
2023-05-10T13:45:41.277Z,26.27
2023-05-10T13:48:31.416Z,26.22
2023-05-10T13:51:20.040Z,26.28
2023-05-10T13:54:12.058Z,26.27
2023-05-10T13:57:04.207Z,26.26
2023-05-10T13:59:57.056Z,26.25
2023-05-10T14:02:46.571Z,26.27
2023-05-10T14:05:36.934Z,26.25
2023-05-10T14:08:28.167Z,26.29
2023-05-10T14:11:18.847Z,26.32
2023-05-10T14:14:08.627Z,26.30
2023-05-10T14:16:57.326Z,26.27
2023-05-10T14:19:46.498Z,26.31
2023-05-10T14:22:36.727Z,26.38
2023-05-10T14:25:26.003Z,26.37
2023-05-10T14:28:15.783Z,26.43
2023-05-10T14:31:06.568Z,26.40
2023-05-10T14:33:55.891Z,26.35
2023-05-10T14:36:45.641Z,26.34
2023-05-10T14:39:36.190Z,26.40
2023-05-10T14:42:25.237Z,26.42
2023-05-10T14:45:17.024Z,26.36
2023-05-10T14:48:06.934Z,26.40
2023-05-10T14:50:55.779Z,26.37
2023-05-10T14:53:45.290Z,26.31
2023-05-10T14:56:35.812Z,26.30
2023-05-10T14:59:24.520Z,26.33
2023-05-10T15:02:13.698Z,26.34
2023-05-10T15:05:03.483Z,26.39
2023-05-10T15:07:52.932Z,26.46
2023-05-10T15:10:42.561Z,26.48
2023-05-10T15:13:33.934Z,26.44
2023-05-10T15:16:23.000Z,26.34
2023-05-10T15:19:11.873Z,26.37
2023-05-10T15:22:03.427Z,26.26
2023-05-10T15:24:52.241Z,26.29
2023-05-10T15:27:40.961Z,26.34
2023-05-10T15:30:32.808Z,26.31
2023-05-10T15:33:21.713Z,26.27
2023-05-10T15:36:10.870Z,26.26
2023-05-10T15:38:59.738Z,26.22
2023-05-10T15:41:49.849Z,26.16
2023-05-10T15:44:39.885Z,26.14
2023-05-10T15:47:30.251Z,26.19
2023-05-10T15:50:19.207Z,26.19
2023-05-10T15:53:07.972Z,26.22
2023-05-10T15:55:56.836Z,26.18
2023-05-10T15:58:46.187Z,26.10
2023-05-10T16:01:35.012Z,26.03
2023-05-10T16:04:25.475Z,26.04
2023-05-10T16:07:17.904Z,26.04
2023-05-10T16:10:07.962Z,26.01
2023-05-10T16:12:57.080Z,26.02
2023-05-10T16:15:46.081Z,26.04
2023-05-10T16:18:34.942Z,26.00
2023-05-10T16:21:25.690Z,26.04
2023-05-10T16:24:15.007Z,26.06
2023-05-10T16:27:05.634Z,26.10
2023-05-10T16:29:55.633Z,26.13
2023-05-10T16:32:44.384Z,26.14
2023-05-10T16:35:33.108Z,26.12
2023-05-10T16:38:23.388Z,26.14
2023-05-10T16:41:12.543Z,26.16
2023-05-10T16:44:01.641Z,26.15
2023-05-10T16:46:53.241Z,26.14
2023-05-10T16:49:42.307Z,26.14
2023-05-10T16:52:32.676Z,26.15
2023-05-10T16:55:26.186Z,26.18
2023-05-10T16:58:15.173Z,26.21
2023-05-10T17:01:03.908Z,26.15
2023-05-10T17:03:52.831Z,26.16
2023-05-10T17:06:41.789Z,26.20
2023-05-10T17:09:30.441Z,26.21
2023-05-10T17:12:21.653Z,26.27
2023-05-10T17:15:11.941Z,26.21
2023-05-10T17:18:01.148Z,26.22
2023-05-10T17:20:50.931Z,26.22
2023-05-10T17:23:39.588Z,26.21
2023-05-10T17:26:30.080Z,26.24
2023-05-10T17:29:21.854Z,26.22
2023-05-10T17:32:10.783Z,26.22
2023-05-10T17:35:00.129Z,26.24
2023-05-10T17:37:48.905Z,26.24
2023-05-10T17:40:37.866Z,26.27
2023-05-10T17:43:26.903Z,26.27
2023-05-10T17:46:17.244Z,26.27
2023-05-10T17:49:07.060Z,26.28
2023-05-10T17:51:55.905Z,26.27
2023-05-10T17:54:47.899Z,26.25
2023-05-10T17:57:38.860Z,26.24
2023-05-10T18:00:27.568Z,26.23
2023-05-10T18:03:18.349Z,26.22
2023-05-10T18:06:07.677Z,26.27
2023-05-10T18:08:57.238Z,26.27
2023-05-10T18:11:46.557Z,26.24
2023-05-10T18:14:40.973Z,26.24
2023-05-10T18:17:30.538Z,26.24
2023-05-10T18:20:21.041Z,26.28
2023-05-10T18:23:10.086Z,26.28
2023-05-10T18:25:59.471Z,26.29
2023-05-10T18:28:49.246Z,26.31
2023-05-10T18:31:38.621Z,26.38
2023-05-10T18:34:29.133Z,26.39
2023-05-10T18:37:19.320Z,26.42
2023-05-10T18:40:13.598Z,26.40
2023-05-10T18:43:03.283Z,26.70
2023-05-10T18:45:53.028Z,26.72
2023-05-10T18:48:42.084Z,26.72
2023-05-10T18:51:33.063Z,26.57
2023-05-10T18:54:24.204Z,26.50
2023-05-10T18:57:15.215Z,26.54
2023-05-10T19:00:05.492Z,26.52
2023-05-10T19:02:54.725Z,26.64
2023-05-10T19:05:43.643Z,26.56
2023-05-10T19:08:33.926Z,26.58
2023-05-10T19:11:25.574Z,26.60
2023-05-10T19:14:14.256Z,26.63
2023-05-10T19:17:06.132Z,26.62
2023-05-10T19:19:56.660Z,26.63
2023-05-10T19:23:02.222Z,26.69
2023-05-10T19:25:55.923Z,26.67
2023-05-10T19:28:46.287Z,26.63
2023-05-10T19:31:35.652Z,26.68
2023-05-10T19:34:25.891Z,26.75
2023-05-10T19:37:15.452Z,26.72
2023-05-10T19:40:04.774Z,26.71
2023-05-10T19:42:53.692Z,26.74
2023-05-10T19:45:47.849Z,26.79
2023-05-10T19:48:36.677Z,26.76
2023-05-10T19:51:27.750Z,26.75
2023-05-10T19:54:18.691Z,26.82
2023-05-10T19:57:08.709Z,26.77
2023-05-10T19:59:58.149Z,26.70
2023-05-10T20:02:48.386Z,26.75
2023-05-10T20:05:37.682Z,26.73
2023-05-10T20:08:26.388Z,26.72
2023-05-10T20:11:15.356Z,26.70
2023-05-10T20:14:07.425Z,26.75
2023-05-10T20:16:58.791Z,26.76
2023-05-10T20:19:48.947Z,26.77
2023-05-10T20:22:37.641Z,26.73
2023-05-10T20:25:26.746Z,26.78
2023-05-10T20:28:17.213Z,26.78
2023-05-10T20:31:12.737Z,26.88
2023-05-10T20:34:03.721Z,26.85
2023-05-10T20:36:57.598Z,26.82
2023-05-10T20:39:50.305Z,26.90
2023-05-10T20:42:39.402Z,26.88
2023-05-10T20:45:28.168Z,26.87
2023-05-10T20:48:18.056Z,26.87
2023-05-10T20:51:07.063Z,26.86
2023-05-10T20:53:57.316Z,26.87
2023-05-10T20:56:45.999Z,26.85
2023-05-10T20:59:34.796Z,26.88
2023-05-10T21:02:23.575Z,26.89
2023-05-10T21:05:12.619Z,26.87
2023-05-10T21:08:01.336Z,26.87
2023-05-10T21:10:51.534Z,26.84
2023-05-10T21:13:40.164Z,26.87
2023-05-10T21:16:33.546Z,26.83
2023-05-10T21:19:22.228Z,26.86
2023-05-10T21:22:13.714Z,26.82
2023-05-10T21:25:05.453Z,26.81
2023-05-10T21:27:55.743Z,26.81
2023-05-10T21:30:44.419Z,26.77
2023-05-10T21:33:33.204Z,26.85
2023-05-10T21:36:22.154Z,26.83
2023-05-10T21:39:12.432Z,26.79
2023-05-10T21:42:04.023Z,26.75
2023-05-10T21:44:56.658Z,26.70
2023-05-10T21:47:45.820Z,26.58
2023-05-10T21:50:35.982Z,26.56
2023-05-10T21:53:24.541Z,26.48
2023-05-10T21:56:13.168Z,26.49
2023-05-10T21:59:01.914Z,26.45
2023-05-10T22:01:51.888Z,26.40
2023-05-10T22:04:40.595Z,26.43
2023-05-10T22:07:29.238Z,26.41
2023-05-10T22:10:18.617Z,26.41
2023-05-10T22:13:08.716Z,26.41
2023-05-10T22:15:57.322Z,26.45
2023-05-10T22:18:47.305Z,26.46
2023-05-10T22:21:35.960Z,26.41
2023-05-10T22:24:24.537Z,26.39
2023-05-10T22:27:13.205Z,26.41
2023-05-10T22:30:02.104Z,26.39
2023-05-10T22:32:51.411Z,26.38
2023-05-10T22:35:43.837Z,26.35
2023-05-10T22:38:34.102Z,26.36
2023-05-10T22:41:23.202Z,26.40
2023-05-10T22:44:11.882Z,26.37
2023-05-10T22:47:00.714Z,26.32
2023-05-10T22:49:49.302Z,26.30
2023-05-10T22:52:39.933Z,26.31
2023-05-10T22:55:28.592Z,26.34
2023-05-10T22:58:17.614Z,26.30
2023-05-10T23:01:06.478Z,26.28
2023-05-10T23:03:55.188Z,26.30
2023-05-10T23:06:44.073Z,26.27
2023-05-10T23:09:34.815Z,26.27
2023-05-10T23:12:23.424Z,26.25
2023-05-10T23:15:12.952Z,26.28
2023-05-10T23:18:01.715Z,26.26
2023-05-10T23:20:50.344Z,26.24
2023-05-10T23:23:39.013Z,26.24
2023-05-10T23:26:29.035Z,26.23
2023-05-10T23:29:17.660Z,26.20
2023-05-10T23:32:06.854Z,26.21
2023-05-10T23:34:55.500Z,26.20
2023-05-10T23:37:44.128Z,26.26
2023-05-10T23:40:32.718Z,26.25
2023-05-10T23:43:22.756Z,26.28
2023-05-10T23:46:11.356Z,26.31
2023-05-10T23:49:00.034Z,26.26
2023-05-10T23:51:48.626Z,26.21
2023-05-10T23:54:37.410Z,26.24
2023-05-10T23:57:26.135Z,26.23
